Outremont, Canada
Current Conditions -  °F | °C
As of 7:15 AM on Monday 24 Nov 2014 (Local Time) from CYUL Reporting Station
Light Rain Light Rain  
Wind Chill: 38°   Ceiling: 4500
Heat Index: 45°   Visibility: 4mi
Dew Point: 43°   Wind: 13mph
Humidity: 93%   Direction: 120°ESE
Pressure: 29.51"   Gusts: 21mph
Location:  45.51°N, 73.61°W
Report Text: CYUL 241215Z 12011G18KT 4SM -RA BR SCT009 OVC045 07/06 A2951 RMK SF4NS4 PRESFR SLP994
Loading
Personal Weather Stations






























Interactive Weather Map New forecast layout! Learn more

10-Day Weather Forecast

Advertisements
Track Severe Weather on mobile